sensor_id;sensor_type;location;lat;lon;timestamp;P1;durP1;ratioP1;P2;durP2;ratioP2
19554;SDS011;9924;50.828;6.440;2023-04-16T00:02:05;19.33;;;9.75;;
19554;SDS011;9924;50.828;6.440;2023-04-16T00:04:49;18.95;;;10.65;;
19554;SDS011;9924;50.828;6.440;2023-04-16T00:07:33;16.05;;;10.07;;
19554;SDS011;9924;50.828;6.440;2023-04-16T00:10:18;25.55;;;10.00;;
19554;SDS011;9924;50.828;6.440;2023-04-16T00:13:02;14.25;;;9.18;;
19554;SDS011;9924;50.828;6.440;2023-04-16T00:15:47;19.70;;;10.38;;
19554;SDS011;9924;50.828;6.440;2023-04-16T00:18:31;17.00;;;9.25;;
19554;SDS011;9924;50.828;6.440;2023-04-16T00:21:16;21.23;;;10.30;;
19554;SDS011;9924;50.828;6.440;2023-04-16T00:24:00;17.13;;;9.48;;
19554;SDS011;9924;50.828;6.440;2023-04-16T00:26:44;19.48;;;10.75;;
19554;SDS011;9924;50.828;6.440;2023-04-16T00:29:29;24.77;;;11.07;;
19554;SDS011;9924;50.828;6.440;2023-04-16T00:32:13;20.83;;;10.90;;
19554;SDS011;9924;50.828;6.440;2023-04-16T00:34:58;22.50;;;11.20;;
19554;SDS011;9924;50.828;6.440;2023-04-16T00:37:42;21.25;;;10.88;;
19554;SDS011;9924;50.828;6.440;2023-04-16T00:40:27;20.38;;;10.90;;
19554;SDS011;9924;50.828;6.440;2023-04-16T00:43:19;22.60;;;11.45;;
19554;SDS011;9924;50.828;6.440;2023-04-16T00:46:05;21.08;;;10.85;;
19554;SDS011;9924;50.828;6.440;2023-04-16T00:48:51;26.92;;;11.00;;
19554;SDS011;9924;50.828;6.440;2023-04-16T00:51:36;24.13;;;11.77;;
19554;SDS011;9924;50.828;6.440;2023-04-16T00:54:21;22.17;;;11.93;;
19554;SDS011;9924;50.828;6.440;2023-04-16T00:57:07;23.77;;;10.80;;
19554;SDS011;9924;50.828;6.440;2023-04-16T00:59:52;29.63;;;11.70;;
19554;SDS011;9924;50.828;6.440;2023-04-16T01:02:37;24.15;;;11.43;;
19554;SDS011;9924;50.828;6.440;2023-04-16T01:05:22;29.48;;;11.18;;
19554;SDS011;9924;50.828;6.440;2023-04-16T01:08:06;21.98;;;10.82;;
19554;SDS011;9924;50.828;6.440;2023-04-16T01:11:01;25.63;;;11.30;;
19554;SDS011;9924;50.828;6.440;2023-04-16T01:13:45;25.50;;;12.13;;
19554;SDS011;9924;50.828;6.440;2023-04-16T01:16:31;20.75;;;11.15;;
19554;SDS011;9924;50.828;6.440;2023-04-16T01:19:15;22.80;;;10.50;;
19554;SDS011;9924;50.828;6.440;2023-04-16T01:21:59;19.92;;;9.95;;
19554;SDS011;9924;50.828;6.440;2023-04-16T01:24:44;27.83;;;11.45;;
19554;SDS011;9924;50.828;6.440;2023-04-16T01:27:29;27.65;;;11.38;;
19554;SDS011;9924;50.828;6.440;2023-04-16T01:30:14;20.67;;;11.55;;
19554;SDS011;9924;50.828;6.440;2023-04-16T01:32:58;26.17;;;11.13;;
19554;SDS011;9924;50.828;6.440;2023-04-16T01:35:43;27.65;;;11.15;;
19554;SDS011;9924;50.828;6.440;2023-04-16T01:38:27;20.85;;;10.48;;
19554;SDS011;9924;50.828;6.440;2023-04-16T01:41:12;27.55;;;10.68;;
19554;SDS011;9924;50.828;6.440;2023-04-16T01:43:56;20.25;;;10.73;;
19554;SDS011;9924;50.828;6.440;2023-04-16T01:46:41;20.13;;;10.15;;
19554;SDS011;9924;50.828;6.440;2023-04-16T01:49:27;17.35;;;10.45;;
19554;SDS011;9924;50.828;6.440;2023-04-16T01:52:12;25.25;;;10.85;;
19554;SDS011;9924;50.828;6.440;2023-04-16T01:54:56;22.88;;;10.43;;
19554;SDS011;9924;50.828;6.440;2023-04-16T01:57:40;25.48;;;10.63;;
19554;SDS011;9924;50.828;6.440;2023-04-16T02:00:25;24.27;;;10.77;;
19554;SDS011;9924;50.828;6.440;2023-04-16T02:03:09;20.23;;;9.95;;
19554;SDS011;9924;50.828;6.440;2023-04-16T02:05:54;21.40;;;11.35;;
19554;SDS011;9924;50.828;6.440;2023-04-16T02:08:38;15.75;;;10.63;;
19554;SDS011;9924;50.828;6.440;2023-04-16T02:11:22;19.50;;;11.20;;
19554;SDS011;9924;50.828;6.440;2023-04-16T02:14:06;22.92;;;11.27;;
19554;SDS011;9924;50.828;6.440;2023-04-16T02:16:51;22.73;;;11.73;;
19554;SDS011;9924;50.828;6.440;2023-04-16T02:19:35;23.05;;;11.18;;
19554;SDS011;9924;50.828;6.440;2023-04-16T02:22:20;25.80;;;12.00;;
19554;SDS011;9924;50.828;6.440;2023-04-16T02:25:04;17.60;;;11.38;;
19554;SDS011;9924;50.828;6.440;2023-04-16T02:27:49;34.72;;;13.32;;
19554;SDS011;9924;50.828;6.440;2023-04-16T02:30:34;27.02;;;12.30;;
19554;SDS011;9924;50.828;6.440;2023-04-16T02:33:19;30.60;;;12.57;;
19554;SDS011;9924;50.828;6.440;2023-04-16T02:36:03;28.58;;;12.48;;
19554;SDS011;9924;50.828;6.440;2023-04-16T02:38:48;28.85;;;13.48;;
19554;SDS011;9924;50.828;6.440;2023-04-16T02:41:32;27.23;;;13.60;;
19554;SDS011;9924;50.828;6.440;2023-04-16T02:44:17;25.95;;;12.85;;
19554;SDS011;9924;50.828;6.440;2023-04-16T02:47:01;27.02;;;14.07;;
19554;SDS011;9924;50.828;6.440;2023-04-16T02:49:45;27.05;;;13.32;;
19554;SDS011;9924;50.828;6.440;2023-04-16T02:52:29;26.85;;;13.23;;
19554;SDS011;9924;50.828;6.440;2023-04-16T02:55:15;31.15;;;14.48;;
19554;SDS011;9924;50.828;6.440;2023-04-16T02:57:59;34.40;;;15.63;;
19554;SDS011;9924;50.828;6.440;2023-04-16T03:00:44;30.80;;;14.05;;
19554;SDS011;9924;50.828;6.440;2023-04-16T03:03:28;27.88;;;14.57;;
19554;SDS011;9924;50.828;6.440;2023-04-16T03:06:13;33.75;;;14.63;;
19554;SDS011;9924;50.828;6.440;2023-04-16T03:08:57;29.70;;;14.63;;
19554;SDS011;9924;50.828;6.440;2023-04-16T03:11:42;39.00;;;15.75;;
19554;SDS011;9924;50.828;6.440;2023-04-16T03:14:26;41.03;;;15.82;;
19554;SDS011;9924;50.828;6.440;2023-04-16T03:17:10;27.20;;;15.20;;
19554;SDS011;9924;50.828;6.440;2023-04-16T03:19:55;33.53;;;14.82;;
19554;SDS011;9924;50.828;6.440;2023-04-16T03:22:39;39.22;;;15.35;;
19554;SDS011;9924;50.828;6.440;2023-04-16T03:25:24;33.60;;;15.70;;
19554;SDS011;9924;50.828;6.440;2023-04-16T03:28:08;30.33;;;14.93;;
19554;SDS011;9924;50.828;6.440;2023-04-16T03:30:53;39.45;;;16.48;;
19554;SDS011;9924;50.828;6.440;2023-04-16T03:33:37;34.03;;;15.75;;
19554;SDS011;9924;50.828;6.440;2023-04-16T03:36:21;31.98;;;15.38;;
19554;SDS011;9924;50.828;6.440;2023-04-16T03:39:06;39.78;;;17.13;;
19554;SDS011;9924;50.828;6.440;2023-04-16T03:41:50;30.20;;;15.60;;
19554;SDS011;9924;50.828;6.440;2023-04-16T03:44:34;31.58;;;15.75;;
19554;SDS011;9924;50.828;6.440;2023-04-16T03:47:19;32.45;;;15.68;;
19554;SDS011;9924;50.828;6.440;2023-04-16T03:50:05;33.75;;;15.85;;
19554;SDS011;9924;50.828;6.440;2023-04-16T03:52:50;35.08;;;17.02;;
19554;SDS011;9924;50.828;6.440;2023-04-16T03:55:35;31.67;;;15.40;;
19554;SDS011;9924;50.828;6.440;2023-04-16T03:58:19;32.00;;;17.08;;
19554;SDS011;9924;50.828;6.440;2023-04-16T04:01:04;36.45;;;16.23;;
19554;SDS011;9924;50.828;6.440;2023-04-16T04:03:48;33.10;;;16.13;;
19554;SDS011;9924;50.828;6.440;2023-04-16T04:06:32;36.30;;;16.92;;
19554;SDS011;9924;50.828;6.440;2023-04-16T04:09:16;39.10;;;15.80;;
19554;SDS011;9924;50.828;6.440;2023-04-16T04:12:01;36.83;;;16.38;;
19554;SDS011;9924;50.828;6.440;2023-04-16T04:14:46;34.90;;;17.33;;
19554;SDS011;9924;50.828;6.440;2023-04-16T04:17:30;32.13;;;16.05;;
19554;SDS011;9924;50.828;6.440;2023-04-16T04:20:15;36.28;;;16.35;;
19554;SDS011;9924;50.828;6.440;2023-04-16T04:22:59;39.15;;;16.85;;
19554;SDS011;9924;50.828;6.440;2023-04-16T04:25:44;35.53;;;16.73;;
19554;SDS011;9924;50.828;6.440;2023-04-16T04:28:29;34.55;;;16.80;;
19554;SDS011;9924;50.828;6.440;2023-04-16T04:31:13;36.85;;;17.15;;
19554;SDS011;9924;50.828;6.440;2023-04-16T04:33:57;37.42;;;18.50;;
19554;SDS011;9924;50.828;6.440;2023-04-16T04:36:41;33.80;;;17.08;;
19554;SDS011;9924;50.828;6.440;2023-04-16T04:39:26;33.30;;;17.40;;
19554;SDS011;9924;50.828;6.440;2023-04-16T04:42:10;37.08;;;17.25;;
19554;SDS011;9924;50.828;6.440;2023-04-16T04:44:55;34.20;;;16.98;;
19554;SDS011;9924;50.828;6.440;2023-04-16T04:47:39;36.17;;;17.90;;
19554;SDS011;9924;50.828;6.440;2023-04-16T04:50:23;38.88;;;17.63;;
19554;SDS011;9924;50.828;6.440;2023-04-16T04:53:08;38.00;;;18.23;;
19554;SDS011;9924;50.828;6.440;2023-04-16T04:55:53;33.67;;;16.80;;
19554;SDS011;9924;50.828;6.440;2023-04-16T04:58:38;34.65;;;17.05;;
19554;SDS011;9924;50.828;6.440;2023-04-16T05:01:23;30.35;;;16.17;;
19554;SDS011;9924;50.828;6.440;2023-04-16T05:04:07;32.20;;;15.40;;
19554;SDS011;9924;50.828;6.440;2023-04-16T05:06:52;29.60;;;16.58;;
19554;SDS011;9924;50.828;6.440;2023-04-16T05:09:36;30.80;;;15.35;;
19554;SDS011;9924;50.828;6.440;2023-04-16T05:12:20;32.00;;;16.40;;
19554;SDS011;9924;50.828;6.440;2023-04-16T05:15:05;30.42;;;15.43;;
19554;SDS011;9924;50.828;6.440;2023-04-16T05:17:49;30.83;;;15.65;;
19554;SDS011;9924;50.828;6.440;2023-04-16T05:20:34;30.10;;;15.02;;
19554;SDS011;9924;50.828;6.440;2023-04-16T05:23:20;29.80;;;15.57;;
19554;SDS011;9924;50.828;6.440;2023-04-16T05:26:04;30.95;;;15.75;;
19554;SDS011;9924;50.828;6.440;2023-04-16T05:28:49;33.65;;;14.90;;
19554;SDS011;9924;50.828;6.440;2023-04-16T05:31:33;28.30;;;14.85;;
19554;SDS011;9924;50.828;6.440;2023-04-16T05:34:17;29.67;;;14.75;;
19554;SDS011;9924;50.828;6.440;2023-04-16T05:37:02;28.48;;;15.05;;
19554;SDS011;9924;50.828;6.440;2023-04-16T05:39:46;26.67;;;14.43;;
19554;SDS011;9924;50.828;6.440;2023-04-16T05:42:31;26.17;;;14.27;;
19554;SDS011;9924;50.828;6.440;2023-04-16T05:45:15;27.95;;;14.73;;
19554;SDS011;9924;50.828;6.440;2023-04-16T05:48:00;26.60;;;14.02;;
19554;SDS011;9924;50.828;6.440;2023-04-16T05:50:45;30.92;;;14.90;;
19554;SDS011;9924;50.828;6.440;2023-04-16T05:53:29;24.80;;;13.80;;
19554;SDS011;9924;50.828;6.440;2023-04-16T05:56:13;28.13;;;14.38;;
19554;SDS011;9924;50.828;6.440;2023-04-16T05:58:58;24.23;;;13.52;;
19554;SDS011;9924;50.828;6.440;2023-04-16T06:01:42;27.08;;;13.82;;
19554;SDS011;9924;50.828;6.440;2023-04-16T06:04:27;27.30;;;13.80;;
19554;SDS011;9924;50.828;6.440;2023-04-16T06:07:14;21.83;;;12.80;;
19554;SDS011;9924;50.828;6.440;2023-04-16T06:09:58;25.80;;;13.40;;
19554;SDS011;9924;50.828;6.440;2023-04-16T06:12:42;24.40;;;13.05;;
19554;SDS011;9924;50.828;6.440;2023-04-16T06:15:27;24.88;;;13.63;;
19554;SDS011;9924;50.828;6.440;2023-04-16T06:18:11;27.98;;;12.57;;
19554;SDS011;9924;50.828;6.440;2023-04-16T06:20:56;21.67;;;12.48;;
19554;SDS011;9924;50.828;6.440;2023-04-16T06:23:42;23.70;;;12.77;;
19554;SDS011;9924;50.828;6.440;2023-04-16T06:26:26;21.50;;;12.18;;
19554;SDS011;9924;50.828;6.440;2023-04-16T06:29:10;20.05;;;11.52;;
19554;SDS011;9924;50.828;6.440;2023-04-16T06:31:54;20.67;;;11.38;;
19554;SDS011;9924;50.828;6.440;2023-04-16T06:34:39;19.10;;;11.25;;
19554;SDS011;9924;50.828;6.440;2023-04-16T06:37:24;21.83;;;10.50;;
19554;SDS011;9924;50.828;6.440;2023-04-16T06:40:08;19.88;;;10.85;;
19554;SDS011;9924;50.828;6.440;2023-04-16T06:42:53;19.13;;;10.98;;
19554;SDS011;9924;50.828;6.440;2023-04-16T06:45:37;18.30;;;10.50;;
19554;SDS011;9924;50.828;6.440;2023-04-16T06:48:22;22.48;;;11.27;;
19554;SDS011;9924;50.828;6.440;2023-04-16T06:51:07;20.92;;;11.32;;
19554;SDS011;9924;50.828;6.440;2023-04-16T06:53:51;18.42;;;9.85;;
19554;SDS011;9924;50.828;6.440;2023-04-16T06:56:35;20.02;;;10.55;;
19554;SDS011;9924;50.828;6.440;2023-04-16T06:59:20;20.15;;;10.77;;
19554;SDS011;9924;50.828;6.440;2023-04-16T07:02:04;20.08;;;11.13;;
19554;SDS011;9924;50.828;6.440;2023-04-16T07:04:49;16.73;;;9.15;;
19554;SDS011;9924;50.828;6.440;2023-04-16T07:07:34;19.38;;;10.20;;
19554;SDS011;9924;50.828;6.440;2023-04-16T07:10:19;20.75;;;10.82;;
19554;SDS011;9924;50.828;6.440;2023-04-16T07:13:03;20.13;;;10.68;;
19554;SDS011;9924;50.828;6.440;2023-04-16T07:15:47;17.67;;;9.13;;
19554;SDS011;9924;50.828;6.440;2023-04-16T07:18:32;19.17;;;10.65;;
19554;SDS011;9924;50.828;6.440;2023-04-16T07:21:17;18.38;;;11.13;;
19554;SDS011;9924;50.828;6.440;2023-04-16T07:24:01;18.88;;;10.50;;
19554;SDS011;9924;50.828;6.440;2023-04-16T07:26:46;18.70;;;10.27;;
19554;SDS011;9924;50.828;6.440;2023-04-16T07:29:30;15.32;;;8.85;;
19554;SDS011;9924;50.828;6.440;2023-04-16T07:32:15;19.63;;;10.35;;
19554;SDS011;9924;50.828;6.440;2023-04-16T07:34:59;16.45;;;10.43;;
19554;SDS011;9924;50.828;6.440;2023-04-16T07:37:45;21.00;;;11.13;;
19554;SDS011;9924;50.828;6.440;2023-04-16T07:40:30;18.50;;;10.23;;
19554;SDS011;9924;50.828;6.440;2023-04-16T07:43:14;20.70;;;11.13;;
19554;SDS011;9924;50.828;6.440;2023-04-16T07:45:59;21.90;;;11.23;;
19554;SDS011;9924;50.828;6.440;2023-04-16T07:48:43;24.85;;;11.38;;
19554;SDS011;9924;50.828;6.440;2023-04-16T07:51:28;25.38;;;12.07;;
19554;SDS011;9924;50.828;6.440;2023-04-16T07:54:12;24.20;;;12.75;;
19554;SDS011;9924;50.828;6.440;2023-04-16T07:56:56;24.67;;;12.80;;
19554;SDS011;9924;50.828;6.440;2023-04-16T07:59:40;25.52;;;13.65;;
19554;SDS011;9924;50.828;6.440;2023-04-16T08:02:25;28.38;;;14.77;;
19554;SDS011;9924;50.828;6.440;2023-04-16T08:05:10;35.65;;;15.70;;
19554;SDS011;9924;50.828;6.440;2023-04-16T08:07:55;46.15;;;18.90;;
19554;SDS011;9924;50.828;6.440;2023-04-16T08:10:40;49.80;;;20.70;;
19554;SDS011;9924;50.828;6.440;2023-04-16T08:13:25;56.08;;;21.77;;
19554;SDS011;9924;50.828;6.440;2023-04-16T08:16:09;52.47;;;22.05;;
19554;SDS011;9924;50.828;6.440;2023-04-16T08:18:54;50.03;;;22.95;;
19554;SDS011;9924;50.828;6.440;2023-04-16T08:21:38;49.60;;;22.92;;
19554;SDS011;9924;50.828;6.440;2023-04-16T08:24:23;52.15;;;23.08;;
19554;SDS011;9924;50.828;6.440;2023-04-16T08:27:07;53.05;;;22.70;;
19554;SDS011;9924;50.828;6.440;2023-04-16T08:29:54;44.63;;;20.80;;
19554;SDS011;9924;50.828;6.440;2023-04-16T08:32:38;51.38;;;23.48;;
19554;SDS011;9924;50.828;6.440;2023-04-16T08:35:23;56.53;;;22.60;;
19554;SDS011;9924;50.828;6.440;2023-04-16T08:38:07;56.17;;;23.48;;
19554;SDS011;9924;50.828;6.440;2023-04-16T08:40:51;56.75;;;22.05;;
19554;SDS011;9924;50.828;6.440;2023-04-16T08:43:38;48.63;;;21.33;;
19554;SDS011;9924;50.828;6.440;2023-04-16T08:46:26;55.00;;;21.98;;
19554;SDS011;9924;50.828;6.440;2023-04-16T08:49:15;57.55;;;22.73;;
19554;SDS011;9924;50.828;6.440;2023-04-16T08:52:04;55.05;;;23.92;;
19554;SDS011;9924;50.828;6.440;2023-04-16T08:57:56;54.15;;;21.77;;
19554;SDS011;9924;50.828;6.440;2023-04-16T09:00:44;46.88;;;19.90;;
19554;SDS011;9924;50.828;6.440;2023-04-16T09:03:31;50.90;;;21.65;;
19554;SDS011;9924;50.828;6.440;2023-04-16T09:06:15;47.63;;;21.35;;
19554;SDS011;9924;50.828;6.440;2023-04-16T09:09:01;43.80;;;20.77;;
19554;SDS011;9924;50.828;6.440;2023-04-16T09:11:50;47.90;;;20.60;;
19554;SDS011;9924;50.828;6.440;2023-04-16T09:14:35;45.25;;;20.30;;
19554;SDS011;9924;50.828;6.440;2023-04-16T09:17:20;46.85;;;20.42;;
19554;SDS011;9924;50.828;6.440;2023-04-16T09:20:05;51.22;;;19.65;;
19554;SDS011;9924;50.828;6.440;2023-04-16T09:22:54;42.60;;;20.15;;
19554;SDS011;9924;50.828;6.440;2023-04-16T09:25:39;42.33;;;19.08;;
19554;SDS011;9924;50.828;6.440;2023-04-16T09:28:43;46.15;;;19.10;;
19554;SDS011;9924;50.828;6.440;2023-04-16T09:31:29;48.58;;;19.83;;
19554;SDS011;9924;50.828;6.440;2023-04-16T09:34:13;44.10;;;19.60;;
19554;SDS011;9924;50.828;6.440;2023-04-16T09:37:13;46.20;;;20.10;;
19554;SDS011;9924;50.828;6.440;2023-04-16T09:40:03;45.97;;;20.38;;
19554;SDS011;9924;50.828;6.440;2023-04-16T09:42:48;44.13;;;20.35;;
19554;SDS011;9924;50.828;6.440;2023-04-16T09:45:33;45.03;;;20.45;;
19554;SDS011;9924;50.828;6.440;2023-04-16T09:48:33;43.67;;;19.67;;
19554;SDS011;9924;50.828;6.440;2023-04-16T09:51:18;44.95;;;19.60;;
19554;SDS011;9924;50.828;6.440;2023-04-16T09:54:03;43.80;;;20.65;;
19554;SDS011;9924;50.828;6.440;2023-04-16T09:56:48;41.85;;;20.83;;
19554;SDS011;9924;50.828;6.440;2023-04-16T09:59:34;46.20;;;21.23;;
19554;SDS011;9924;50.828;6.440;2023-04-16T10:02:18;48.95;;;22.08;;
19554;SDS011;9924;50.828;6.440;2023-04-16T10:05:03;50.20;;;20.73;;
19554;SDS011;9924;50.828;6.440;2023-04-16T10:07:47;44.35;;;20.15;;
19554;SDS011;9924;50.828;6.440;2023-04-16T10:10:32;42.90;;;19.25;;
19554;SDS011;9924;50.828;6.440;2023-04-16T10:13:24;38.45;;;18.92;;
19554;SDS011;9924;50.828;6.440;2023-04-16T10:16:14;40.63;;;17.98;;
19554;SDS011;9924;50.828;6.440;2023-04-16T10:18:59;48.97;;;20.30;;
19554;SDS011;9924;50.828;6.440;2023-04-16T10:21:46;43.63;;;19.83;;
19554;SDS011;9924;50.828;6.440;2023-04-16T10:24:32;43.47;;;20.35;;
19554;SDS011;9924;50.828;6.440;2023-04-16T10:27:17;42.38;;;19.48;;
19554;SDS011;9924;50.828;6.440;2023-04-16T10:30:03;51.65;;;22.52;;
19554;SDS011;9924;50.828;6.440;2023-04-16T10:32:49;55.20;;;22.85;;
19554;SDS011;9924;50.828;6.440;2023-04-16T10:35:38;53.42;;;22.90;;
19554;SDS011;9924;50.828;6.440;2023-04-16T10:38:24;58.45;;;25.25;;
19554;SDS011;9924;50.828;6.440;2023-04-16T10:41:09;51.42;;;21.77;;
19554;SDS011;9924;50.828;6.440;2023-04-16T10:44:02;55.78;;;24.15;;
19554;SDS011;9924;50.828;6.440;2023-04-16T10:46:52;58.17;;;24.25;;
19554;SDS011;9924;50.828;6.440;2023-04-16T10:49:37;55.35;;;25.58;;
19554;SDS011;9924;50.828;6.440;2023-04-16T10:52:22;63.42;;;26.20;;
19554;SDS011;9924;50.828;6.440;2023-04-16T10:55:14;56.00;;;24.48;;
19554;SDS011;9924;50.828;6.440;2023-04-16T10:57:59;52.60;;;23.45;;
19554;SDS011;9924;50.828;6.440;2023-04-16T11:00:50;52.92;;;23.25;;
19554;SDS011;9924;50.828;6.440;2023-04-16T11:03:35;49.80;;;23.55;;
19554;SDS011;9924;50.828;6.440;2023-04-16T11:06:23;55.20;;;23.23;;
19554;SDS011;9924;50.828;6.440;2023-04-16T11:09:15;45.20;;;22.27;;
19554;SDS011;9924;50.828;6.440;2023-04-16T11:12:39;40.50;;;21.15;;
19554;SDS011;9924;50.828;6.440;2023-04-16T11:15:29;47.78;;;21.13;;
19554;SDS011;9924;50.828;6.440;2023-04-16T11:18:19;39.53;;;20.10;;
19554;SDS011;9924;50.828;6.440;2023-04-16T11:21:07;39.85;;;21.27;;
19554;SDS011;9924;50.828;6.440;2023-04-16T11:23:53;37.25;;;18.20;;
19554;SDS011;9924;50.828;6.440;2023-04-16T11:26:39;40.58;;;20.20;;
19554;SDS011;9924;50.828;6.440;2023-04-16T11:29:24;42.33;;;21.08;;
19554;SDS011;9924;50.828;6.440;2023-04-16T11:32:08;42.75;;;20.10;;
19554;SDS011;9924;50.828;6.440;2023-04-16T11:34:53;41.83;;;21.52;;
19554;SDS011;9924;50.828;6.440;2023-04-16T11:37:38;37.63;;;19.90;;
19554;SDS011;9924;50.828;6.440;2023-04-16T11:40:32;42.58;;;20.15;;
19554;SDS011;9924;50.828;6.440;2023-04-16T11:43:17;41.13;;;20.90;;
19554;SDS011;9924;50.828;6.440;2023-04-16T11:46:03;45.83;;;22.42;;
19554;SDS011;9924;50.828;6.440;2023-04-16T11:48:49;37.33;;;19.38;;
19554;SDS011;9924;50.828;6.440;2023-04-16T11:51:38;38.78;;;18.48;;
19554;SDS011;9924;50.828;6.440;2023-04-16T11:54:24;32.85;;;17.75;;
19554;SDS011;9924;50.828;6.440;2023-04-16T11:57:09;36.17;;;18.38;;
19554;SDS011;9924;50.828;6.440;2023-04-16T11:59:54;34.13;;;18.23;;
19554;SDS011;9924;50.828;6.440;2023-04-16T12:02:49;33.08;;;17.70;;
19554;SDS011;9924;50.828;6.440;2023-04-16T12:05:38;34.58;;;17.95;;
19554;SDS011;9924;50.828;6.440;2023-04-16T12:08:29;31.27;;;17.23;;
19554;SDS011;9924;50.828;6.440;2023-04-16T12:11:14;31.77;;;16.85;;
19554;SDS011;9924;50.828;6.440;2023-04-16T12:14:05;32.53;;;17.15;;
19554;SDS011;9924;50.828;6.440;2023-04-16T12:16:53;27.25;;;16.08;;
19554;SDS011;9924;50.828;6.440;2023-04-16T12:19:46;34.03;;;17.48;;
19554;SDS011;9924;50.828;6.440;2023-04-16T12:22:45;31.23;;;16.95;;
19554;SDS011;9924;50.828;6.440;2023-04-16T12:25:31;31.67;;;17.02;;
19554;SDS011;9924;50.828;6.440;2023-04-16T12:31:36;31.42;;;17.58;;
19554;SDS011;9924;50.828;6.440;2023-04-16T12:34:20;28.42;;;16.95;;
19554;SDS011;9924;50.828;6.440;2023-04-16T12:37:05;32.13;;;17.83;;
19554;SDS011;9924;50.828;6.440;2023-04-16T12:39:52;31.38;;;15.98;;
19554;SDS011;9924;50.828;6.440;2023-04-16T12:42:37;27.17;;;16.23;;
19554;SDS011;9924;50.828;6.440;2023-04-16T12:45:21;29.02;;;16.10;;
19554;SDS011;9924;50.828;6.440;2023-04-16T12:48:06;32.80;;;16.77;;
19554;SDS011;9924;50.828;6.440;2023-04-16T12:50:52;29.15;;;16.65;;
19554;SDS011;9924;50.828;6.440;2023-04-16T12:53:37;27.23;;;16.48;;
19554;SDS011;9924;50.828;6.440;2023-04-16T12:56:21;29.33;;;16.05;;
19554;SDS011;9924;50.828;6.440;2023-04-16T12:59:06;30.20;;;15.93;;
19554;SDS011;9924;50.828;6.440;2023-04-16T13:01:52;27.92;;;16.60;;
19554;SDS011;9924;50.828;6.440;2023-04-16T13:04:37;25.80;;;15.52;;
19554;SDS011;9924;50.828;6.440;2023-04-16T13:07:21;28.20;;;15.98;;
19554;SDS011;9924;50.828;6.440;2023-04-16T13:10:07;28.48;;;15.30;;
19554;SDS011;9924;50.828;6.440;2023-04-16T13:12:51;27.27;;;15.60;;
19554;SDS011;9924;50.828;6.440;2023-04-16T13:15:35;29.67;;;16.65;;
19554;SDS011;9924;50.828;6.440;2023-04-16T13:18:20;27.13;;;15.25;;
19554;SDS011;9924;50.828;6.440;2023-04-16T13:21:05;28.90;;;15.30;;
19554;SDS011;9924;50.828;6.440;2023-04-16T13:23:49;30.48;;;16.73;;
19554;SDS011;9924;50.828;6.440;2023-04-16T13:26:34;25.33;;;15.63;;
19554;SDS011;9924;50.828;6.440;2023-04-16T13:29:18;27.88;;;15.45;;
19554;SDS011;9924;50.828;6.440;2023-04-16T13:32:03;31.08;;;15.35;;
19554;SDS011;9924;50.828;6.440;2023-04-16T13:34:47;26.17;;;15.30;;
19554;SDS011;9924;50.828;6.440;2023-04-16T13:37:33;27.45;;;15.68;;
19554;SDS011;9924;50.828;6.440;2023-04-16T13:40:17;27.23;;;15.63;;
19554;SDS011;9924;50.828;6.440;2023-04-16T13:43:02;28.88;;;15.52;;
19554;SDS011;9924;50.828;6.440;2023-04-16T13:45:46;26.15;;;14.40;;
19554;SDS011;9924;50.828;6.440;2023-04-16T13:48:30;24.92;;;15.00;;
19554;SDS011;9924;50.828;6.440;2023-04-16T13:51:15;29.08;;;15.30;;
19554;SDS011;9924;50.828;6.440;2023-04-16T13:54:03;24.38;;;15.68;;
19554;SDS011;9924;50.828;6.440;2023-04-16T13:56:50;28.25;;;16.50;;
19554;SDS011;9924;50.828;6.440;2023-04-16T13:59:34;29.95;;;17.67;;
19554;SDS011;9924;50.828;6.440;2023-04-16T14:02:19;31.85;;;17.48;;
19554;SDS011;9924;50.828;6.440;2023-04-16T14:05:04;29.83;;;17.83;;
19554;SDS011;9924;50.828;6.440;2023-04-16T14:07:49;32.90;;;17.50;;
19554;SDS011;9924;50.828;6.440;2023-04-16T14:10:34;35.05;;;18.45;;
19554;SDS011;9924;50.828;6.440;2023-04-16T14:13:20;31.38;;;17.15;;
19554;SDS011;9924;50.828;6.440;2023-04-16T14:16:04;27.48;;;17.15;;
19554;SDS011;9924;50.828;6.440;2023-04-16T14:21:44;34.25;;;18.60;;
19554;SDS011;9924;50.828;6.440;2023-04-16T14:24:32;28.02;;;17.63;;
19554;SDS011;9924;50.828;6.440;2023-04-16T14:27:16;33.60;;;17.80;;
19554;SDS011;9924;50.828;6.440;2023-04-16T14:30:00;35.78;;;21.17;;
19554;SDS011;9924;50.828;6.440;2023-04-16T14:32:47;29.35;;;17.63;;
19554;SDS011;9924;50.828;6.440;2023-04-16T14:35:32;33.40;;;17.08;;
19554;SDS011;9924;50.828;6.440;2023-04-16T14:38:16;33.00;;;17.15;;
19554;SDS011;9924;50.828;6.440;2023-04-16T14:41:04;32.00;;;17.15;;
19554;SDS011;9924;50.828;6.440;2023-04-16T14:43:59;32.20;;;17.45;;
19554;SDS011;9924;50.828;6.440;2023-04-16T14:46:44;32.35;;;18.05;;
19554;SDS011;9924;50.828;6.440;2023-04-16T14:49:29;26.77;;;16.52;;
19554;SDS011;9924;50.828;6.440;2023-04-16T14:52:13;29.20;;;17.45;;
19554;SDS011;9924;50.828;6.440;2023-04-16T14:55:07;30.17;;;17.55;;
19554;SDS011;9924;50.828;6.440;2023-04-16T14:58:02;33.50;;;16.75;;
19554;SDS011;9924;50.828;6.440;2023-04-16T15:00:47;36.30;;;18.85;;
19554;SDS011;9924;50.828;6.440;2023-04-16T15:03:32;34.30;;;18.02;;
19554;SDS011;9924;50.828;6.440;2023-04-16T15:06:16;36.08;;;18.27;;
19554;SDS011;9924;50.828;6.440;2023-04-16T15:09:09;32.10;;;19.17;;
19554;SDS011;9924;50.828;6.440;2023-04-16T15:11:54;31.23;;;18.27;;
19554;SDS011;9924;50.828;6.440;2023-04-16T15:14:39;40.22;;;19.48;;
19554;SDS011;9924;50.828;6.440;2023-04-16T15:17:29;38.60;;;19.75;;
19554;SDS011;9924;50.828;6.440;2023-04-16T15:20:14;34.70;;;19.27;;
19554;SDS011;9924;50.828;6.440;2023-04-16T15:22:58;39.78;;;21.05;;
19554;SDS011;9924;50.828;6.440;2023-04-16T15:25:43;39.85;;;21.83;;
19554;SDS011;9924;50.828;6.440;2023-04-16T15:28:27;37.55;;;21.40;;
19554;SDS011;9924;50.828;6.440;2023-04-16T15:31:11;39.17;;;20.80;;
19554;SDS011;9924;50.828;6.440;2023-04-16T15:33:56;35.45;;;20.40;;
19554;SDS011;9924;50.828;6.440;2023-04-16T15:36:42;43.78;;;21.90;;
19554;SDS011;9924;50.828;6.440;2023-04-16T15:39:27;41.67;;;21.17;;
19554;SDS011;9924;50.828;6.440;2023-04-16T15:42:11;35.10;;;21.52;;
19554;SDS011;9924;50.828;6.440;2023-04-16T15:44:55;39.67;;;20.85;;
19554;SDS011;9924;50.828;6.440;2023-04-16T15:47:40;38.92;;;22.52;;
19554;SDS011;9924;50.828;6.440;2023-04-16T15:50:26;43.97;;;22.20;;
19554;SDS011;9924;50.828;6.440;2023-04-16T15:53:10;39.80;;;22.88;;
19554;SDS011;9924;50.828;6.440;2023-04-16T15:55:55;44.92;;;21.98;;
19554;SDS011;9924;50.828;6.440;2023-04-16T15:58:39;39.30;;;22.27;;
19554;SDS011;9924;50.828;6.440;2023-04-16T16:01:24;36.42;;;21.27;;
19554;SDS011;9924;50.828;6.440;2023-04-16T16:04:10;38.05;;;21.75;;
19554;SDS011;9924;50.828;6.440;2023-04-16T16:06:55;41.67;;;22.05;;
19554;SDS011;9924;50.828;6.440;2023-04-16T16:09:39;36.22;;;21.08;;
19554;SDS011;9924;50.828;6.440;2023-04-16T16:12:24;44.50;;;22.55;;
19554;SDS011;9924;50.828;6.440;2023-04-16T16:15:08;41.60;;;23.48;;
19554;SDS011;9924;50.828;6.440;2023-04-16T16:17:53;42.25;;;23.70;;
19554;SDS011;9924;50.828;6.440;2023-04-16T16:20:40;40.72;;;21.65;;
19554;SDS011;9924;50.828;6.440;2023-04-16T16:23:26;35.75;;;21.63;;
19554;SDS011;9924;50.828;6.440;2023-04-16T16:26:10;45.45;;;21.83;;
19554;SDS011;9924;50.828;6.440;2023-04-16T16:28:55;43.47;;;23.50;;
19554;SDS011;9924;50.828;6.440;2023-04-16T16:31:40;42.03;;;23.58;;
19554;SDS011;9924;50.828;6.440;2023-04-16T16:34:24;42.70;;;23.42;;